Time;durP1;ratioP1;P1;durP2;ratioP2;P2;SDS_P1;SDS_P2;PMS_P1;PMS_P2;Temp;Humidity;BMP_temperature;BMP_pressure;BME280_temperature;BME280_humidity;BME280_pressure;Samples;Min_cycle;Max_cycle;Signal;HPM_P1;HPM_P2
2023/10/07 00:01:24;;;;;;;14.00;6.10;;;;;;;6.61;100.00;101784.59;107098;1248;72633;-76
2023/10/07 00:03:56;;;;;;;11.80;5.60;;;;;;;6.50;100.00;101782.27;107146;1245;70787;-77
2023/10/07 00:06:27;;;;;;;12.30;5.60;;;;;;;6.40;100.00;101779.02;107121;1247;63015;-79
2023/10/07 00:09:01;;;;;;;15.00;5.80;;;;;;;6.36;100.00;101778.48;107173;1245;59074;-76
2023/10/07 00:11:31;;;;;;;12.50;5.60;;;;;;;6.32;100.00;101767.70;107223;1255;61383;-76
2023/10/07 00:14:00;;;;;;;8.00;5.40;;;;;;;6.39;100.00;101767.30;107094;1248;72088;-76
2023/10/07 00:16:29;;;;;;;11.00;5.30;;;;;;;6.29;100.00;101765.77;107143;1244;72104;-73
2023/10/07 00:18:58;;;;;;;10.60;5.50;;;;;;;6.16;100.00;101760.89;107102;1249;70493;-76
2023/10/07 00:21:27;;;;;;;11.70;5.50;;;;;;;6.08;100.00;101757.89;107108;1248;73705;-77
2023/10/07 00:23:57;;;;;;;8.80;5.10;;;;;;;6.07;100.00;101754.46;107090;1245;62012;-76
2023/10/07 00:26:26;;;;;;;8.60;5.40;;;;;;;5.99;100.00;101749.92;107129;1245;59161;-75
2023/10/07 00:29:04;;;;;;;13.20;5.40;;;;;;;5.91;100.00;101740.36;107048;1257;72819;-75
2023/10/07 00:31:33;;;;;;;8.60;5.20;;;;;;;6.01;100.00;101739.31;107094;1248;61926;-75
2023/10/07 00:34:13;;;;;;;8.90;6.10;;;;;;;6.14;100.00;101735.70;106921;1245;61377;-73
2023/10/07 00:36:43;;;;;;;11.00;5.20;;;;;;;6.17;100.00;101735.75;107068;1248;72050;-76
2023/10/07 00:39:20;;;;;;;11.90;5.60;;;;;;;6.05;100.00;101735.17;107187;1245;58918;-74
2023/10/07 00:41:58;;;;;;;8.70;5.60;;;;;;;5.95;100.00;101728.46;107074;1254;60107;-76
2023/10/07 00:44:33;;;;;;;10.50;5.20;;;;;;;5.90;100.00;101724.98;107138;1257;74054;-76
2023/10/07 00:49:41;;;;;;;10.80;5.20;;;;;;;6.09;100.00;101722.41;106937;1254;69794;-76
2023/10/07 00:52:27;;;;;;;8.10;5.00;;;;;;;6.08;100.00;101711.36;106893;1248;63818;-75
2023/10/07 00:55:41;;;;;;;10.90;5.90;;;;;;;6.05;100.00;101705.09;106917;1254;62121;-75
2023/10/07 00:58:19;;;;;;;9.90;5.60;;;;;;;5.91;100.00;101702.48;106936;1249;60445;-78
2023/10/07 01:00:49;;;;;;;9.10;5.00;;;;;;;5.90;100.00;101705.63;107095;1248;73904;-79
2023/10/07 01:03:31;;;;;;;8.80;5.00;;;;;;;5.92;100.00;101703.14;107017;1257;64276;-78
2023/10/07 01:08:44;;;;;;;11.40;5.80;;;;;;;5.99;100.00;101700.80;106852;1248;62918;-78
2023/10/07 01:11:21;;;;;;;8.40;5.40;;;;;;;6.16;100.00;101697.91;107054;1254;61260;-76
2023/10/07 01:13:50;;;;;;;10.70;5.60;;;;;;;6.08;100.00;101694.92;107066;1248;59047;-75
2023/10/07 01:21:53;;;;;;;12.80;5.80;;;;;;;5.90;100.00;101678.13;107111;1249;69450;-77
2023/10/07 01:24:49;;;;;;;7.90;5.20;;;;;;;5.90;100.00;101675.70;107133;1248;73737;-81
2023/10/07 01:29:49;;;;;;;9.10;5.10;;;;;;;5.70;100.00;101670.73;107104;1257;58214;-82
2023/10/07 01:32:19;;;;;;;10.30;5.80;;;;;;;5.65;100.00;101671.11;107116;1248;63034;-78
2023/10/07 01:34:51;;;;;;;9.30;4.80;;;;;;;5.61;100.00;101667.95;107140;1245;70222;-81
2023/10/07 01:37:23;;;;;;;9.80;5.40;;;;;;;5.67;100.00;101665.13;107127;1248;60139;-79
2023/10/07 01:39:52;;;;;;;7.70;5.60;;;;;;;5.61;100.00;101659.84;107022;1247;62450;-79
2023/10/07 01:42:37;;;;;;;8.40;5.00;;;;;;;5.60;100.00;101651.90;107046;1248;61305;-81
2023/10/07 01:45:11;;;;;;;10.00;5.30;;;;;;;5.59;100.00;101647.63;107121;1249;59130;-81
2023/10/07 01:47:40;;;;;;;9.60;5.30;;;;;;;5.56;100.00;101641.67;107058;1248;62767;-82
2023/10/07 01:50:12;;;;;;;11.10;5.30;;;;;;;5.55;100.00;101639.46;107070;1257;72147;-76
2023/10/07 01:52:45;;;;;;;10.40;5.10;;;;;;;5.54;100.00;101635.87;107055;1244;70778;-77
2023/10/07 01:55:19;;;;;;;9.10;5.30;;;;;;;5.52;100.00;101634.93;107090;1254;63476;-77
2023/10/07 01:57:50;;;;;;;11.30;5.80;;;;;;;5.74;100.00;101630.64;107161;1245;58749;-77
2023/10/07 02:00:38;;;;;;;9.80;5.40;;;;;;;5.87;100.00;101630.33;107145;1247;60199;-75
2023/10/07 02:03:13;;;;;;;10.00;6.00;;;;;;;5.91;100.00;101623.98;107066;1251;73261;-78
2023/10/07 02:05:47;;;;;;;11.30;5.60;;;;;;;5.94;100.00;101622.48;107040;1247;61360;-77
2023/10/07 02:08:24;;;;;;;9.10;5.40;;;;;;;5.88;100.00;101620.98;107101;1254;68504;-75
2023/10/07 02:10:57;;;;;;;7.80;5.50;;;;;;;5.85;100.00;101613.98;106992;1244;63521;-76
2023/10/07 02:13:30;;;;;;;10.60;5.20;;;;;;;5.87;100.00;101609.59;107011;1254;61276;-77
2023/10/07 02:16:06;;;;;;;11.80;5.10;;;;;;;5.90;100.00;101605.17;107138;1245;59086;-76
2023/10/07 02:18:35;;;;;;;9.60;5.70;;;;;;;5.92;100.00;101605.84;107063;1257;62375;-78
2023/10/07 02:21:07;;;;;;;8.50;5.40;;;;;;;5.92;100.00;101606.84;107007;1248;71817;-82
2023/10/07 02:23:40;;;;;;;12.50;5.40;;;;;;;5.96;100.00;101602.89;107115;1254;70270;-75
2023/10/07 02:26:17;;;;;;;11.40;5.80;;;;;;;6.12;100.00;101595.48;107042;1248;72922;-74
2023/10/07 02:28:52;;;;;;;9.20;5.60;;;;;;;6.13;100.00;101594.60;107083;1247;62457;-77
2023/10/07 02:31:24;;;;;;;10.00;5.40;;;;;;;6.05;100.00;101589.72;107161;1245;59126;-76
2023/10/07 02:33:53;;;;;;;11.00;5.30;;;;;;;5.95;100.00;101586.84;107150;1254;73493;-76
2023/10/07 02:36:29;;;;;;;8.60;5.10;;;;;;;5.90;100.00;101585.13;107092;1244;62472;-77
2023/10/07 02:39:24;;;;;;;8.50;5.10;;;;;;;5.94;100.00;101582.39;106995;1245;60314;-77
2023/10/07 02:41:53;;;;;;;11.00;5.30;;;;;;;5.97;100.00;101574.12;107004;1257;63166;-77
2023/10/07 02:44:28;;;;;;;10.50;5.90;;;;;;;5.94;100.00;101560.95;107010;1254;59046;-75
2023/10/07 02:46:57;;;;;;;11.20;6.30;;;;;;;5.86;100.00;101558.27;107083;1246;61687;-77
2023/10/07 02:49:26;;;;;;;12.90;5.20;;;;;;;5.80;100.00;101549.36;107006;1257;63086;-78
2023/10/07 02:51:56;;;;;;;11.20;5.60;;;;;;;5.84;100.00;101542.83;107066;1244;70526;-76
2023/10/07 02:54:33;;;;;;;9.70;5.50;;;;;;;5.95;100.00;101541.01;106924;1249;59331;-76
2023/10/07 02:57:11;;;;;;;12.80;5.30;;;;;;;5.88;100.00;101532.80;107079;1257;74305;-77
2023/10/07 02:59:50;;;;;;;10.90;5.50;;;;;;;5.96;100.00;101527.33;107001;1245;59398;-76
2023/10/07 03:02:37;;;;;;;10.10;5.60;;;;;;;5.87;100.00;101525.75;106944;1244;60958;-74
2023/10/07 03:07:42;;;;;;;17.90;6.90;;;;;;;5.77;100.00;101520.10;106975;1245;71373;-74
2023/10/07 03:10:17;;;;;;;12.40;6.10;;;;;;;5.83;100.00;101516.58;107120;1244;70314;-76
2023/10/07 03:12:48;;;;;;;12.10;6.30;;;;;;;5.86;100.00;101519.73;107180;1245;64567;-76
2023/10/07 03:15:40;;;;;;;10.90;6.00;;;;;;;5.88;100.00;101520.86;107109;1247;58931;-76
2023/10/07 03:18:22;;;;;;;20.20;10.70;;;;;;;6.10;100.00;101512.56;107124;1248;60304;-78
2023/10/07 03:21:00;;;;;;;21.10;9.80;;;;;;;6.22;100.00;101504.13;107148;1255;73210;-78
2023/10/07 03:23:33;;;;;;;16.30;8.80;;;;;;;6.46;100.00;101498.61;107201;1244;71894;-74
2023/10/07 03:28:37;;;;;;;25.20;15.30;;;;;;;6.66;100.00;101490.15;107198;1246;72906;-82
2023/10/07 03:31:10;;;;;;;25.00;15.90;;;;;;;6.88;100.00;101487.57;107261;1245;61946;-80
2023/10/07 03:33:44;;;;;;;;;;;;;;;6.86;100.00;101481.44;107308;1244;61521;-84
2023/10/07 03:39:42;;;;;;;32.70;12.00;;;;;;;6.79;100.00;101470.17;107286;1244;72026;-82
2023/10/07 03:42:14;;;;;;;25.40;9.90;;;;;;;6.79;100.00;101462.89;107202;1244;69841;-81
2023/10/07 03:44:46;;;;;;;21.30;9.10;;;;;;;6.69;100.00;101460.73;107152;1246;73331;-80
2023/10/07 03:47:16;;;;;;;21.10;7.60;;;;;;;6.50;100.00;101455.86;107142;1248;62212;-72
2023/10/07 03:49:52;;;;;;;20.40;7.60;;;;;;;6.39;100.00;101459.96;107071;1250;61954;-76
2023/10/07 03:52:27;;;;;;;13.70;6.70;;;;;;;6.23;100.00;101458.42;107219;1247;63456;-77
2023/10/07 03:54:57;;;;;;;13.90;7.00;;;;;;;6.12;100.00;101456.45;107242;1244;69610;-76
2023/10/07 03:57:26;;;;;;;17.10;7.10;;;;;;;6.05;100.00;101451.05;107178;1256;59952;-78
2023/10/07 03:59:56;;;;;;;11.90;7.20;;;;;;;6.01;100.00;101445.84;107152;1248;63459;-77
2023/10/07 04:05:00;;;;;;;16.70;7.00;;;;;;;5.99;100.00;101437.11;107226;1248;58923;-73
2023/10/07 04:07:30;;;;;;;15.40;6.70;;;;;;;6.04;100.00;101438.30;107295;1249;62869;-76
2023/10/07 04:10:13;;;;;;;14.50;6.70;;;;;;;6.03;100.00;101431.95;107264;1245;60898;-79
2023/10/07 04:12:44;;;;;;;11.30;6.10;;;;;;;6.16;100.00;101422.55;107356;1251;70807;-77
2023/10/07 04:15:18;;;;;;;13.40;6.20;;;;;;;6.18;100.00;101422.83;107190;1246;64057;-79
2023/10/07 04:17:52;;;;;;;16.90;7.20;;;;;;;6.24;100.00;101415.30;107069;1245;61625;-78
2023/10/07 04:20:24;;;;;;;13.30;6.20;;;;;;;6.25;100.00;101416.81;107104;1254;57366;-80
2023/10/07 04:23:11;;;;;;;12.30;6.50;;;;;;;6.32;100.00;101417.71;107047;1256;62479;-79
2023/10/07 04:25:44;;;;;;;9.60;5.60;;;;;;;6.38;100.00;101415.39;107195;1245;61010;-80
2023/10/07 04:28:14;;;;;;;16.60;7.10;;;;;;;6.50;100.00;101413.65;107174;1248;69484;-78
2023/10/07 04:30:47;;;;;;;13.70;6.40;;;;;;;6.68;100.00;101412.85;107102;1244;73728;-76
2023/10/07 04:33:18;;;;;;;15.70;7.20;;;;;;;6.69;100.00;101411.08;107145;1247;62257;-76
2023/10/07 04:35:52;;;;;;;15.40;7.10;;;;;;;6.89;100.00;101417.76;107103;1248;61911;-75
2023/10/07 04:46:42;;;;;;;19.40;6.80;;;;;;;6.77;100.00;101407.77;107227;1244;74169;-80
2023/10/07 04:49:14;;;;;;;13.70;6.20;;;;;;;6.94;100.00;101404.73;107180;1245;58983;-75
2023/10/07 04:54:20;;;;;;;20.00;6.30;;;;;;;7.03;100.00;101406.41;107220;1245;74073;-76
2023/10/07 04:57:00;;;;;;;13.30;5.50;;;;;;;7.05;100.00;101405.95;107156;1248;72471;-78
2023/10/07 04:59:30;;;;;;;15.50;6.30;;;;;;;7.18;100.00;101404.81;107129;1256;70221;-74
2023/10/07 05:02:02;;;;;;;18.30;7.30;;;;;;;7.31;100.00;101401.60;107179;1245;63048;-75
2023/10/07 05:04:32;;;;;;;13.10;6.20;;;;;;;7.38;100.00;101393.11;106773;1248;411628;-70
2023/10/07 05:07:04;;;;;;;18.10;5.70;;;;;;;7.56;100.00;101385.50;107068;1247;60210;-71
2023/10/07 05:09:33;;;;;;;14.60;5.80;;;;;;;7.68;100.00;101382.33;107062;1246;62249;-70
2023/10/07 05:12:06;;;;;;;17.80;5.50;;;;;;;7.91;100.00;101381.16;107074;1244;70772;-72
2023/10/07 05:14:36;;;;;;;11.00;5.40;;;;;;;8.09;100.00;101378.14;107154;1252;60304;-74
2023/10/07 05:17:10;;;;;;;11.20;5.80;;;;;;;8.29;100.00;101384.95;107159;1248;72675;-81
2023/10/07 05:19:39;;;;;;;17.00;6.30;;;;;;;8.44;100.00;101382.11;107168;1248;58823;-77
2023/10/07 05:22:18;;;;;;;11.60;5.30;;;;;;;8.59;100.00;101380.27;107171;1248;59109;-75
2023/10/07 05:24:51;;;;;;;10.80;5.40;;;;;;;8.76;100.00;101375.01;107097;1245;73676;-76
2023/10/07 05:27:21;;;;;;;20.50;8.50;;;;;;;8.93;100.00;101381.02;107089;1257;61865;-70
2023/10/07 05:29:50;;;;;;;14.10;6.50;;;;;;;9.09;100.00;101380.29;107187;1248;60757;-74
2023/10/07 05:32:19;;;;;;;19.00;8.10;;;;;;;9.22;100.00;101375.95;107073;1248;63055;-76
2023/10/07 05:34:48;;;;;;;23.60;12.50;;;;;;;9.38;100.00;101374.33;107083;1247;62123;-75
2023/10/07 05:37:18;;;;;;;14.10;5.70;;;;;;;9.52;100.00;101373.02;106971;1244;61889;-71
2023/10/07 05:39:47;;;;;;;8.80;5.50;;;;;;;9.63;100.00;101371.30;107019;1248;62025;-70
2023/10/07 05:42:16;;;;;;;18.50;6.30;;;;;;;9.80;100.00;101369.63;107021;1246;60856;-68
2023/10/07 05:44:45;;;;;;;19.00;6.70;;;;;;;9.95;100.00;101365.45;106880;1244;70855;-72
2023/10/07 05:47:14;;;;;;;11.40;5.40;;;;;;;10.06;100.00;101365.14;106885;1247;74896;-69
2023/10/07 05:49:44;;;;;;;9.90;5.80;;;;;;;10.18;100.00;101366.36;107007;1244;63120;-70
2023/10/07 05:52:13;;;;;;;15.80;6.70;;;;;;;10.34;100.00;101362.27;107109;1244;59818;-69
2023/10/07 05:54:43;;;;;;;15.40;5.50;;;;;;;10.49;100.00;101356.66;107011;1245;73732;-69
2023/10/07 05:57:13;;;;;;;16.60;5.40;;;;;;;10.69;100.00;101351.09;107039;1245;72660;-70
2023/10/07 05:59:43;;;;;;;14.30;5.90;;;;;;;10.84;100.00;101349.44;106836;1244;71299;-71
2023/10/07 06:02:15;;;;;;;14.50;5.60;;;;;;;11.02;100.00;101346.55;107072;1246;74519;-76
2023/10/07 06:04:44;;;;;;;15.20;5.50;;;;;;;11.21;100.00;101342.71;106945;1248;63098;-71
2023/10/07 06:07:14;;;;;;;14.10;5.80;;;;;;;11.39;100.00;101342.02;106995;1248;59381;-73
2023/10/07 06:09:44;;;;;;;19.40;6.50;;;;;;;11.58;100.00;101339.73;107066;1256;62173;-70
2023/10/07 06:12:15;;;;;;;15.50;5.90;;;;;;;11.75;100.00;101340.85;108858;1244;61254;-73
2023/10/07 06:14:44;;;;;;;17.90;6.30;;;;;;;11.95;100.00;101328.69;107086;1248;60277;-72
2023/10/07 06:17:13;;;;;;;18.10;6.60;;;;;;;12.14;100.00;101322.33;106953;1255;63313;-72
2023/10/07 06:19:43;;;;;;;13.90;6.60;;;;;;;12.34;100.00;101329.99;106935;1248;60728;-72
2023/10/07 06:22:15;;;;;;;17.60;7.00;;;;;;;12.54;100.00;101324.77;106971;1246;61524;-74
2023/10/07 06:24:44;;;;;;;12.30;5.70;;;;;;;12.72;100.00;101323.11;106965;1247;73763;-72
2023/10/07 06:27:20;;;;;;;14.60;6.10;;;;;;;12.89;100.00;101322.81;107071;1252;61771;-74
2023/10/07 06:29:50;;;;;;;14.70;5.80;;;;;;;13.06;100.00;101314.24;107077;1256;70491;-76
2023/10/07 06:32:22;;;;;;;11.90;5.60;;;;;;;13.19;100.00;101313.57;107022;1255;63453;-76
2023/10/07 06:34:54;;;;;;;10.90;5.30;;;;;;;13.33;100.00;101314.34;107050;1245;59029;-74
2023/10/07 06:37:29;;;;;;;11.40;5.80;;;;;;;13.50;100.00;101310.24;106882;1249;61576;-69
2023/10/07 06:40:11;;;;;;;14.50;6.10;;;;;;;13.67;100.00;101308.84;106973;1245;72741;-72
2023/10/07 06:42:41;;;;;;;12.10;5.20;;;;;;;13.81;100.00;101306.33;106895;1255;72281;-72
2023/10/07 06:45:11;;;;;;;15.20;4.80;;;;;;;13.91;100.00;101308.17;106953;1248;68741;-73
2023/10/07 06:47:40;;;;;;;20.80;5.00;;;;;;;14.06;100.00;101310.56;106949;1256;72678;-71
2023/10/07 06:50:17;;;;;;;8.80;3.70;;;;;;;14.17;100.00;101313.76;106980;1247;59119;-72
2023/10/07 06:52:49;;;;;;;8.80;4.10;;;;;;;14.30;100.00;101311.15;106788;1250;59042;-73
2023/10/07 06:55:18;;;;;;;10.20;4.10;;;;;;;14.45;100.00;101308.00;106936;1247;62783;-71
2023/10/07 06:58:05;;;;;;;10.30;3.80;;;;;;;14.58;100.00;101308.61;107007;1246;61121;-74
2023/10/07 07:00:49;;;;;;;11.90;4.10;;;;;;;14.71;100.00;101308.56;106884;1254;69647;-73
2023/10/07 07:03:19;;;;;;;9.00;4.00;;;;;;;14.86;100.00;101308.61;106894;1248;73685;-75
2023/10/07 07:05:48;;;;;;;8.00;3.70;;;;;;;15.05;100.00;101304.92;107024;1245;59088;-74
2023/10/07 07:08:24;;;;;;;10.80;3.50;;;;;;;15.23;100.00;101301.51;107019;1253;58989;-73
2023/10/07 07:10:56;;;;;;;10.40;3.80;;;;;;;15.41;100.00;101289.71;106963;1254;62734;-73
2023/10/07 07:13:28;;;;;;;9.90;3.60;;;;;;;15.59;100.00;101287.27;107000;1249;73007;-73
2023/10/07 07:16:06;;;;;;;9.20;3.60;;;;;;;15.80;100.00;101283.13;106961;1255;69819;-75
2023/10/07 07:18:40;;;;;;;7.20;3.40;;;;;;;15.99;99.84;101284.81;107037;1253;64023;-73
2023/10/07 07:21:31;;;;;;;6.40;3.20;;;;;;;16.20;99.98;101285.40;107153;1245;59553;-72
2023/10/07 07:24:00;;;;;;;11.30;3.50;;;;;;;16.41;97.75;101280.27;107112;1257;57434;-76
2023/10/07 07:26:30;;;;;;;6.70;3.60;;;;;;;16.58;95.49;101276.15;107134;1246;62689;-76
2023/10/07 07:28:59;;;;;;;8.20;3.00;;;;;;;16.73;93.93;101275.12;107234;1244;61443;-78
2023/10/07 07:31:33;;;;;;;8.90;3.20;;;;;;;16.90;91.11;101267.30;107182;1248;59502;-77
2023/10/07 07:34:20;;;;;;;9.30;3.80;;;;;;;16.96;92.29;101259.16;107160;1245;63266;-77
2023/10/07 07:36:56;;;;;;;6.60;2.90;;;;;;;17.09;91.38;101257.81;107137;1245;59091;-77
2023/10/07 07:39:29;;;;;;;10.30;3.50;;;;;;;17.24;89.53;101253.69;109510;1244;60099;-75
2023/10/07 07:42:15;;;;;;;10.60;3.10;;;;;;;17.41;89.58;101246.64;109455;1245;63901;-76
2023/10/07 07:44:57;;;;;;;16.20;3.90;;;;;;;17.71;85.87;101253.17;109388;1245;61508;-78
2023/10/07 07:47:31;;;;;;;10.00;3.40;;;;;;;17.80;86.60;101253.23;109426;1245;60016;-78
2023/10/07 07:50:07;;;;;;;6.80;3.60;;;;;;;17.93;85.47;101249.71;109477;1244;62538;-72
2023/10/07 07:52:35;;;;;;;6.70;3.40;;;;;;;18.03;84.82;101247.28;109429;1245;61104;-72
2023/10/07 07:55:05;;;;;;;9.60;3.80;;;;;;;18.24;82.38;101241.22;109479;1245;57809;-70
2023/10/07 07:57:34;;;;;;;8.20;3.40;;;;;;;18.24;82.95;101234.34;109388;1244;72012;-72
2023/10/07 08:00:09;;;;;;;10.10;3.80;;;;;;;18.27;82.02;101237.30;109411;1247;61230;-72
2023/10/07 08:02:41;;;;;;;8.10;3.30;;;;;;;18.34;81.21;101232.31;109463;1244;70364;-72
2023/10/07 08:05:13;;;;;;;18.70;3.80;;;;;;;18.38;80.77;101232.17;109475;1244;63262;-75
2023/10/07 08:07:42;;;;;;;7.40;3.40;;;;;;;18.57;81.77;101229.92;109457;1245;60269;-70
2023/10/07 08:10:11;;;;;;;12.20;3.60;;;;;;;18.76;80.50;101218.89;109475;1245;57739;-73
2023/10/07 08:12:40;;;;;;;9.60;3.50;;;;;;;18.98;77.31;101210.95;109456;1245;62784;-73
2023/10/07 08:17:45;;;;;;;6.30;3.60;;;;;;;19.06;76.81;101208.15;109348;1245;59973;-74
2023/10/07 08:20:23;;;;;;;;;;;;;;;19.15;77.16;101212.40;109152;1248;73096;-75
2023/10/07 08:22:53;;;;;;;7.70;2.90;;;;;;;19.24;75.52;101204.15;109254;1247;61124;-74
2023/10/07 08:31:44;;;;;;;5.30;2.90;;;;;;;19.42;69.12;101200.48;109142;1245;62390;-75
2023/10/07 08:34:15;;;;;;;5.60;2.50;;;;;;;19.53;67.74;101197.89;109229;1247;59763;-73
2023/10/07 08:36:44;;;;;;;15.80;2.90;;;;;;;19.62;66.97;101191.48;109191;1244;72371;-76
2023/10/07 08:39:18;;;;;;;7.70;2.70;;;;;;;19.70;66.74;101190.70;109333;1245;60519;-77
2023/10/07 08:41:52;;;;;;;6.60;2.90;;;;;;;19.78;66.15;101189.14;109245;1245;60718;-75
2023/10/07 08:44:29;;;;;;;7.50;2.80;;;;;;;19.76;66.83;101185.27;109348;1244;74090;-75
2023/10/07 08:47:04;;;;;;;7.10;3.10;;;;;;;19.92;65.40;101188.05;109308;1247;72549;-75
2023/10/07 08:49:35;;;;;;;6.20;2.60;;;;;;;20.00;65.37;101185.05;109220;1248;60523;-73
2023/10/07 08:52:11;;;;;;;5.70;2.80;;;;;;;20.05;64.83;101184.24;109337;1245;63280;-74
2023/10/07 08:54:44;;;;;;;9.40;3.80;;;;;;;20.10;64.04;101184.95;109324;1245;57203;-74
2023/10/07 08:57:22;;;;;;;7.50;3.60;;;;;;;20.03;63.58;101172.38;109344;1247;60731;-74
2023/10/07 08:59:59;;;;;;;7.00;3.20;;;;;;;20.22;64.22;101166.66;109144;1244;72848;-76
2023/10/07 09:02:30;;;;;;;7.40;3.50;;;;;;;20.38;62.24;101161.11;109338;1245;72552;-75
2023/10/07 09:05:05;;;;;;;6.00;2.90;;;;;;;20.46;62.53;101159.55;109315;1245;62330;-75
2023/10/07 09:07:36;;;;;;;5.50;2.40;;;;;;;20.65;61.34;101153.10;109218;1244;74510;-75
2023/10/07 09:10:17;;;;;;;7.80;2.70;;;;;;;20.67;59.95;101148.48;109246;1245;57882;-75
2023/10/07 09:12:46;;;;;;;7.80;3.40;;;;;;;20.67;59.78;101142.63;109210;1244;60464;-75
2023/10/07 09:15:21;;;;;;;9.10;2.80;;;;;;;20.88;58.28;101137.60;109366;1244;62973;-75
2023/10/07 09:17:50;;;;;;;6.60;2.70;;;;;;;20.98;58.34;101128.48;109396;1244;72203;-74
2023/10/07 09:20:29;;;;;;;8.40;2.80;;;;;;;21.00;58.00;101132.92;109446;1244;70048;-75
2023/10/07 09:23:07;;;;;;;6.70;2.90;;;;;;;20.97;57.86;101129.78;109398;1244;73625;-75
2023/10/07 09:25:35;;;;;;;5.70;3.00;;;;;;;20.99;57.82;101131.51;109461;1246;61515;-73
2023/10/07 09:28:07;;;;;;;7.30;2.80;;;;;;;20.97;58.23;101119.89;109537;1246;60564;-75
2023/10/07 09:33:18;;;;;;;4.20;2.50;;;;;;;21.20;56.77;101115.33;109549;1245;62205;-74
2023/10/07 09:36:22;;;;;;;9.30;3.10;;;;;;;21.20;57.63;101108.48;109250;1244;69272;-75
2023/10/07 09:38:43;;;;;;;4.20;2.70;;;;;;;21.37;57.45;101100.84;109228;1244;73655;-75
2023/10/07 09:41:12;;;;;;;5.00;2.30;;;;;;;21.41;57.11;101099.88;109169;1244;57594;-74
2023/10/07 09:43:47;;;;;;;6.90;2.80;;;;;;;21.55;54.58;101082.58;109221;1244;61047;-75
2023/10/07 09:46:24;;;;;;;6.00;2.60;;;;;;;21.62;52.91;101084.94;109250;1245;73899;-75
2023/10/07 09:49:06;;;;;;;6.30;2.70;;;;;;;21.74;49.82;101079.88;109210;1245;61260;-74
2023/10/07 09:51:35;;;;;;;6.30;2.30;;;;;;;21.80;49.71;101075.50;109240;1245;70465;-72
2023/10/07 09:55:06;;;;;;;6.40;2.60;;;;;;;21.78;48.97;101071.21;109261;1245;63686;-75
2023/10/07 09:57:59;;;;;;;9.80;3.20;;;;;;;21.82;50.84;101061.36;109284;1245;61083;-72
2023/10/07 10:01:09;;;;;;;6.20;2.60;;;;;;;22.09;50.40;101061.90;109282;1245;57728;-75
2023/10/07 10:04:11;;;;;;;4.70;2.30;;;;;;;22.42;49.59;101055.98;109314;1244;71340;-74
2023/10/07 10:07:22;;;;;;;7.10;2.70;;;;;;;22.53;48.06;101055.63;109340;1244;61244;-74
2023/10/07 10:10:08;;;;;;;3.20;1.70;;;;;;;22.67;44.64;101054.66;109257;1244;69316;-75
2023/10/07 10:18:35;;;;;;;5.90;2.60;;;;;;;22.80;44.47;101047.33;109440;1244;60143;-76
2023/10/07 10:21:09;;;;;;;4.70;2.50;;;;;;;22.93;45.33;101040.48;109310;1244;63185;-78
2023/10/07 10:23:40;;;;;;;5.50;2.60;;;;;;;23.14;44.09;101038.29;109310;1244;61307;-74
2023/10/07 10:26:15;;;;;;;6.90;2.60;;;;;;;23.39;43.64;101034.75;109263;1244;59859;-77
2023/10/07 10:29:03;;;;;;;6.30;2.60;;;;;;;23.32;43.17;101029.99;109542;1244;63223;-75
2023/10/07 10:31:36;;;;;;;5.70;2.40;;;;;;;23.70;42.16;101022.52;109447;1244;57355;-75
2023/10/07 10:34:05;;;;;;;5.40;2.80;;;;;;;23.72;42.06;101015.80;109538;1243;57250;-75
2023/10/07 10:36:49;;;;;;;5.20;2.50;;;;;;;23.67;41.96;101013.15;109482;1245;62132;-76
2023/10/07 10:39:25;;;;;;;4.70;2.30;;;;;;;23.72;41.99;101010.45;109539;1244;71324;-76
2023/10/07 10:42:09;;;;;;;4.60;2.40;;;;;;;23.79;43.52;101003.39;109415;1243;59839;-76
2023/10/07 10:44:39;;;;;;;5.80;2.30;;;;;;;24.10;42.87;100999.48;109431;1244;72817;-73
2023/10/07 10:47:09;;;;;;;5.30;2.30;;;;;;;24.80;39.75;100996.33;109506;1245;57282;-75
2023/10/07 10:49:43;;;;;;;6.70;2.50;;;;;;;24.78;40.03;100989.72;109463;1244;57693;-72
2023/10/07 10:52:13;;;;;;;7.80;2.80;;;;;;;24.92;39.67;100980.10;109454;1244;63479;-76
2023/10/07 10:54:42;;;;;;;7.60;2.10;;;;;;;25.21;38.86;100974.52;109290;1244;60828;-75
2023/10/07 10:57:14;;;;;;;5.10;2.60;;;;;;;25.55;38.62;100965.04;109425;1244;70391;-76
2023/10/07 10:59:43;;;;;;;;;;;;;;;25.64;38.82;100962.58;109415;1244;62595;-75
2023/10/07 11:02:17;;;;;;;7.00;2.80;;;;;;;25.66;38.26;100962.54;109480;1244;57655;-75
2023/10/07 11:04:50;;;;;;;5.80;2.80;;;;;;;25.78;38.78;100952.58;109308;1244;60339;-74
2023/10/07 11:07:19;;;;;;;;;;;;;;;25.76;38.27;100945.36;109325;1245;73508;-75
2023/10/07 11:09:51;;;;;;;6.00;2.80;;;;;;;26.32;37.51;100943.08;109371;1244;62079;-75
2023/10/07 11:12:26;;;;;;;4.80;2.30;;;;;;;26.68;36.41;100939.52;109323;1244;59837;-75
2023/10/07 11:15:15;;;;;;;5.50;2.70;;;;;;;26.30;36.61;100930.61;109416;1244;73862;-75
2023/10/07 11:18:11;;;;;;;6.30;3.10;;;;;;;26.19;36.98;100923.45;109532;1245;57628;-76
2023/10/07 11:20:41;;;;;;;5.10;2.50;;;;;;;26.17;36.94;100925.06;109489;1244;61141;-74
2023/10/07 11:23:15;;;;;;;6.80;2.80;;;;;;;26.19;36.65;100915.09;109493;1245;62084;-75
2023/10/07 11:25:43;;;;;;;7.80;2.60;;;;;;;26.47;37.26;100910.27;109568;1244;71696;-75
2023/10/07 11:28:15;;;;;;;4.80;2.80;;;;;;;27.28;35.05;100907.34;109540;1244;69606;-75
2023/10/07 11:30:49;;;;;;;5.70;2.80;;;;;;;26.93;35.75;100909.29;109432;1246;72229;-74
2023/10/07 11:33:18;;;;;;;9.90;3.30;;;;;;;26.75;36.18;100903.77;109332;1247;57641;-75
2023/10/07 11:35:59;;;;;;;6.40;2.70;;;;;;;26.93;36.11;100895.92;109348;1245;60444;-74
2023/10/07 11:38:30;;;;;;;9.40;3.00;;;;;;;27.42;35.01;100885.23;109397;1244;74006;-76
2023/10/07 11:40:59;;;;;;;8.70;2.70;;;;;;;27.70;34.55;100885.77;109411;1244;72001;-74
2023/10/07 11:43:29;;;;;;;6.90;2.70;;;;;;;27.76;33.95;100877.25;109442;1244;59829;-75
2023/10/07 11:46:04;;;;;;;6.60;2.80;;;;;;;27.14;34.88;100874.92;109488;1245;72601;-74
2023/10/07 11:48:36;;;;;;;8.20;2.80;;;;;;;27.77;34.74;100866.95;109589;1245;60600;-75
2023/10/07 11:51:04;;;;;;;6.40;2.80;;;;;;;28.11;34.12;100864.52;109608;1243;57714;-78
2023/10/07 11:53:34;;;;;;;6.40;2.40;;;;;;;28.21;33.47;100862.02;109587;1244;63403;-77
2023/10/07 11:56:05;;;;;;;10.30;2.50;;;;;;;28.29;32.92;100853.84;109550;1243;61461;-76
2023/10/07 11:58:35;;;;;;;6.30;2.50;;;;;;;28.48;32.31;100840.16;109521;1243;59802;-75
2023/10/07 12:01:04;;;;;;;10.90;2.60;;;;;;;28.56;32.14;100843.08;109501;1243;64216;-75
2023/10/07 12:03:32;;;;;;;6.50;2.70;;;;;;;28.09;33.01;100850.59;109461;1245;59678;-75
2023/10/07 12:06:05;;;;;;;6.00;2.30;;;;;;;27.88;33.10;100839.27;109534;1244;61341;-74
2023/10/07 12:08:34;;;;;;;8.40;2.50;;;;;;;28.66;31.88;100833.73;109541;1244;74188;-74
2023/10/07 12:11:08;;;;;;;11.10;2.40;;;;;;;28.94;31.52;100825.85;109448;1243;62792;-74
2023/10/07 12:13:40;;;;;;;9.80;2.60;;;;;;;28.44;32.49;100824.39;109472;1244;70079;-75
2023/10/07 12:16:09;;;;;;;;;;;;;;;28.96;32.00;100818.89;109546;1244;73261;-75
2023/10/07 12:18:39;;;;;;;3.70;1.90;;;;;;;29.12;32.27;100822.87;109566;1245;57213;-74
2023/10/07 12:21:12;;;;;;;5.70;2.60;;;;;;;29.05;32.16;100818.63;109591;1244;57177;-74
2023/10/07 12:23:43;;;;;;;10.80;2.70;;;;;;;29.14;31.71;100812.33;109583;1244;62854;-74
2023/10/07 12:26:12;;;;;;;6.20;2.80;;;;;;;28.99;31.63;100808.38;109581;1244;72693;-76
2023/10/07 12:28:48;;;;;;;7.00;2.30;;;;;;;28.93;32.04;100809.73;109439;1244;70220;-77
2023/10/07 12:31:17;;;;;;;8.40;2.30;;;;;;;28.93;31.28;100806.04;109592;1244;64495;-76
2023/10/07 12:33:46;;;;;;;4.40;2.20;;;;;;;28.34;31.97;100809.60;109527;1245;57289;-74
2023/10/07 12:36:16;;;;;;;6.60;2.90;;;;;;;27.85;32.44;100809.10;109457;1243;57759;-75
2023/10/07 12:38:45;;;;;;;8.00;2.30;;;;;;;27.26;33.14;100807.77;109535;1244;63969;-73